Terminal Aerodrome Forecast
Issued by NWS

Home | Current Version | Previous Version | Graphics & Text | Print | Product List | Glossary On
Versions: 1 2 3 4 5 6 7 8 9 10 11 12 13 14 15 16 17 18
000
FTUS43 KBIS 021608 AAA
TAFJMS
TAF AMD
KJMS 021608Z 0216/0312 20018G28KT P6SM SCT120
     FM022200 22019G29KT P6SM -TSRA BKN090CB OVC110
     FM030000 25016G25KT P6SM -SHRA VCTS BKN080CB
     FM030300 24009KT P6SM SCT150
     FM030800 31014KT P6SM SCT100=

USA.gov is the U.S. government's official web portal to all federal, state and local government web resources and services.